sensor_id;sensor_type;location;lat;lon;timestamp;P1;durP1;ratioP1;P2;durP2;ratioP2
17618;SDS011;8928;51.678;6.074;2022-10-31T00:01:10;30.60;;;13.17;;
17618;SDS011;8928;51.678;6.074;2022-10-31T00:03:58;26.97;;;12.63;;
17618;SDS011;8928;51.678;6.074;2022-10-31T00:06:45;24.17;;;12.73;;
17618;SDS011;8928;51.678;6.074;2022-10-31T00:09:32;26.03;;;12.77;;
17618;SDS011;8928;51.678;6.074;2022-10-31T00:12:19;25.50;;;12.50;;
17618;SDS011;8928;51.678;6.074;2022-10-31T00:15:06;25.47;;;12.37;;
17618;SDS011;8928;51.678;6.074;2022-10-31T00:17:55;32.17;;;13.80;;
17618;SDS011;8928;51.678;6.074;2022-10-31T00:20:42;30.67;;;13.20;;
17618;SDS011;8928;51.678;6.074;2022-10-31T00:23:29;27.63;;;12.90;;
17618;SDS011;8928;51.678;6.074;2022-10-31T00:26:16;27.97;;;13.53;;
17618;SDS011;8928;51.678;6.074;2022-10-31T00:29:04;27.40;;;13.30;;
17618;SDS011;8928;51.678;6.074;2022-10-31T00:31:51;31.17;;;14.00;;
17618;SDS011;8928;51.678;6.074;2022-10-31T00:34:40;31.43;;;13.93;;
17618;SDS011;8928;51.678;6.074;2022-10-31T00:37:27;33.17;;;14.03;;
17618;SDS011;8928;51.678;6.074;2022-10-31T00:40:14;25.87;;;13.60;;
17618;SDS011;8928;51.678;6.074;2022-10-31T00:43:01;30.23;;;13.97;;
17618;SDS011;8928;51.678;6.074;2022-10-31T00:45:48;30.57;;;13.60;;
17618;SDS011;8928;51.678;6.074;2022-10-31T00:48:35;29.07;;;14.20;;
17618;SDS011;8928;51.678;6.074;2022-10-31T00:51:23;27.57;;;14.10;;
17618;SDS011;8928;51.678;6.074;2022-10-31T00:54:10;29.23;;;14.27;;
17618;SDS011;8928;51.678;6.074;2022-10-31T00:56:57;30.83;;;14.47;;
17618;SDS011;8928;51.678;6.074;2022-10-31T00:59:44;30.70;;;14.10;;
17618;SDS011;8928;51.678;6.074;2022-10-31T01:02:31;30.33;;;14.13;;
17618;SDS011;8928;51.678;6.074;2022-10-31T01:05:18;31.13;;;14.70;;
17618;SDS011;8928;51.678;6.074;2022-10-31T01:08:07;34.23;;;15.20;;
17618;SDS011;8928;51.678;6.074;2022-10-31T01:10:57;35.70;;;15.27;;
17618;SDS011;8928;51.678;6.074;2022-10-31T01:13:49;35.10;;;15.57;;
17618;SDS011;8928;51.678;6.074;2022-10-31T01:16:38;37.00;;;15.60;;
17618;SDS011;8928;51.678;6.074;2022-10-31T01:19:25;36.47;;;16.17;;
17618;SDS011;8928;51.678;6.074;2022-10-31T01:22:12;34.23;;;16.70;;
17618;SDS011;8928;51.678;6.074;2022-10-31T01:25:00;39.00;;;17.50;;
17618;SDS011;8928;51.678;6.074;2022-10-31T01:27:48;38.53;;;17.43;;
17618;SDS011;8928;51.678;6.074;2022-10-31T01:30:35;33.00;;;17.53;;
17618;SDS011;8928;51.678;6.074;2022-10-31T01:33:22;33.50;;;16.87;;
17618;SDS011;8928;51.678;6.074;2022-10-31T01:36:12;36.20;;;16.60;;
17618;SDS011;8928;51.678;6.074;2022-10-31T01:39:04;33.90;;;17.33;;
17618;SDS011;8928;51.678;6.074;2022-10-31T01:41:53;39.77;;;18.03;;
17618;SDS011;8928;51.678;6.074;2022-10-31T01:44:51;41.83;;;18.37;;
17618;SDS011;8928;51.678;6.074;2022-10-31T01:47:44;42.17;;;18.50;;
17618;SDS011;8928;51.678;6.074;2022-10-31T01:50:34;46.30;;;18.40;;
17618;SDS011;8928;51.678;6.074;2022-10-31T01:53:23;41.00;;;18.93;;
17618;SDS011;8928;51.678;6.074;2022-10-31T01:56:10;43.53;;;18.40;;
17618;SDS011;8928;51.678;6.074;2022-10-31T01:59:00;44.40;;;19.07;;
17618;SDS011;8928;51.678;6.074;2022-10-31T02:01:49;41.43;;;19.33;;
17618;SDS011;8928;51.678;6.074;2022-10-31T02:04:37;38.40;;;18.60;;
17618;SDS011;8928;51.678;6.074;2022-10-31T02:07:26;42.30;;;19.73;;
17618;SDS011;8928;51.678;6.074;2022-10-31T02:10:19;51.10;;;19.23;;
17618;SDS011;8928;51.678;6.074;2022-10-31T02:13:07;39.70;;;18.97;;
17618;SDS011;8928;51.678;6.074;2022-10-31T02:15:57;39.67;;;18.70;;
17618;SDS011;8928;51.678;6.074;2022-10-31T02:18:44;43.30;;;18.23;;
17618;SDS011;8928;51.678;6.074;2022-10-31T02:21:33;39.20;;;18.30;;
17618;SDS011;8928;51.678;6.074;2022-10-31T02:24:40;40.87;;;18.77;;
17618;SDS011;8928;51.678;6.074;2022-10-31T02:27:49;34.50;;;18.20;;
17618;SDS011;8928;51.678;6.074;2022-10-31T02:30:53;38.90;;;18.57;;
17618;SDS011;8928;51.678;6.074;2022-10-31T02:33:48;43.30;;;18.40;;
17618;SDS011;8928;51.678;6.074;2022-10-31T02:36:41;44.70;;;19.93;;
17618;SDS011;8928;51.678;6.074;2022-10-31T02:39:36;43.27;;;20.33;;
17618;SDS011;8928;51.678;6.074;2022-10-31T02:42:29;43.23;;;20.10;;
17618;SDS011;8928;51.678;6.074;2022-10-31T02:45:21;42.23;;;19.67;;
17618;SDS011;8928;51.678;6.074;2022-10-31T02:48:16;39.40;;;20.33;;
17618;SDS011;8928;51.678;6.074;2022-10-31T02:51:05;45.60;;;20.20;;
17618;SDS011;8928;51.678;6.074;2022-10-31T02:53:53;49.93;;;20.03;;
17618;SDS011;8928;51.678;6.074;2022-10-31T02:56:40;37.93;;;19.40;;
17618;SDS011;8928;51.678;6.074;2022-10-31T02:59:27;39.90;;;19.70;;
17618;SDS011;8928;51.678;6.074;2022-10-31T03:05:43;42.00;;;20.53;;
17618;SDS011;8928;51.678;6.074;2022-10-31T03:08:40;38.03;;;19.33;;
17618;SDS011;8928;51.678;6.074;2022-10-31T03:11:36;41.87;;;18.83;;
17618;SDS011;8928;51.678;6.074;2022-10-31T03:14:31;45.20;;;20.20;;
17618;SDS011;8928;51.678;6.074;2022-10-31T03:17:26;44.30;;;20.53;;
17618;SDS011;8928;51.678;6.074;2022-10-31T03:20:21;43.53;;;20.10;;
17618;SDS011;8928;51.678;6.074;2022-10-31T03:23:13;41.00;;;20.70;;
17618;SDS011;8928;51.678;6.074;2022-10-31T03:26:03;46.47;;;20.30;;
17618;SDS011;8928;51.678;6.074;2022-10-31T03:28:55;40.17;;;19.90;;
17618;SDS011;8928;51.678;6.074;2022-10-31T03:31:47;39.60;;;20.23;;
17618;SDS011;8928;51.678;6.074;2022-10-31T03:34:39;43.37;;;19.97;;
17618;SDS011;8928;51.678;6.074;2022-10-31T03:37:29;40.10;;;19.70;;
17618;SDS011;8928;51.678;6.074;2022-10-31T03:40:20;40.67;;;20.70;;
17618;SDS011;8928;51.678;6.074;2022-10-31T03:43:13;38.37;;;19.40;;
17618;SDS011;8928;51.678;6.074;2022-10-31T03:46:03;40.57;;;18.80;;
17618;SDS011;8928;51.678;6.074;2022-10-31T03:48:52;41.73;;;18.87;;
17618;SDS011;8928;51.678;6.074;2022-10-31T03:51:40;40.30;;;18.93;;
17618;SDS011;8928;51.678;6.074;2022-10-31T03:54:33;41.20;;;18.93;;
17618;SDS011;8928;51.678;6.074;2022-10-31T03:57:29;40.73;;;18.73;;
17618;SDS011;8928;51.678;6.074;2022-10-31T04:00:23;38.60;;;18.07;;
17618;SDS011;8928;51.678;6.074;2022-10-31T04:03:11;39.83;;;18.80;;
17618;SDS011;8928;51.678;6.074;2022-10-31T04:06:03;37.03;;;17.53;;
17618;SDS011;8928;51.678;6.074;2022-10-31T04:08:53;31.73;;;16.90;;
17618;SDS011;8928;51.678;6.074;2022-10-31T04:11:45;33.60;;;16.53;;
17618;SDS011;8928;51.678;6.074;2022-10-31T04:14:37;30.97;;;16.30;;
17618;SDS011;8928;51.678;6.074;2022-10-31T04:17:27;27.13;;;15.17;;
17618;SDS011;8928;51.678;6.074;2022-10-31T04:20:18;24.77;;;14.40;;
17618;SDS011;8928;51.678;6.074;2022-10-31T04:23:17;27.43;;;14.50;;
17618;SDS011;8928;51.678;6.074;2022-10-31T04:26:07;26.93;;;15.13;;
17618;SDS011;8928;51.678;6.074;2022-10-31T04:28:56;27.00;;;14.77;;
17618;SDS011;8928;51.678;6.074;2022-10-31T04:31:45;23.47;;;14.27;;
17618;SDS011;8928;51.678;6.074;2022-10-31T04:34:32;26.17;;;14.23;;
17618;SDS011;8928;51.678;6.074;2022-10-31T04:37:19;29.03;;;15.10;;
17618;SDS011;8928;51.678;6.074;2022-10-31T04:40:06;25.77;;;14.80;;
17618;SDS011;8928;51.678;6.074;2022-10-31T04:42:54;25.63;;;14.03;;
17618;SDS011;8928;51.678;6.074;2022-10-31T04:45:41;28.07;;;15.33;;
17618;SDS011;8928;51.678;6.074;2022-10-31T04:48:29;30.03;;;14.27;;
17618;SDS011;8928;51.678;6.074;2022-10-31T04:51:16;30.87;;;14.87;;
17618;SDS011;8928;51.678;6.074;2022-10-31T04:54:03;30.27;;;15.83;;
17618;SDS011;8928;51.678;6.074;2022-10-31T04:56:51;29.17;;;15.60;;
17618;SDS011;8928;51.678;6.074;2022-10-31T04:59:38;26.50;;;14.73;;
17618;SDS011;8928;51.678;6.074;2022-10-31T05:02:25;30.97;;;15.20;;
17618;SDS011;8928;51.678;6.074;2022-10-31T05:05:13;30.37;;;16.70;;
17618;SDS011;8928;51.678;6.074;2022-10-31T05:08:01;31.93;;;16.53;;
17618;SDS011;8928;51.678;6.074;2022-10-31T05:10:49;33.17;;;16.60;;
17618;SDS011;8928;51.678;6.074;2022-10-31T05:13:37;27.67;;;16.47;;
17618;SDS011;8928;51.678;6.074;2022-10-31T05:16:24;32.53;;;16.77;;
17618;SDS011;8928;51.678;6.074;2022-10-31T05:19:11;29.83;;;15.97;;
17618;SDS011;8928;51.678;6.074;2022-10-31T05:21:59;27.23;;;15.30;;
17618;SDS011;8928;51.678;6.074;2022-10-31T05:24:46;26.07;;;14.33;;
17618;SDS011;8928;51.678;6.074;2022-10-31T05:27:33;23.07;;;14.60;;
17618;SDS011;8928;51.678;6.074;2022-10-31T05:30:21;22.43;;;14.20;;
17618;SDS011;8928;51.678;6.074;2022-10-31T05:33:10;22.80;;;14.13;;
17618;SDS011;8928;51.678;6.074;2022-10-31T05:35:57;25.20;;;15.07;;
17618;SDS011;8928;51.678;6.074;2022-10-31T05:38:45;23.17;;;14.20;;
17618;SDS011;8928;51.678;6.074;2022-10-31T05:41:32;26.47;;;15.80;;
17618;SDS011;8928;51.678;6.074;2022-10-31T05:44:19;30.87;;;15.57;;
17618;SDS011;8928;51.678;6.074;2022-10-31T05:47:06;32.13;;;17.43;;
17618;SDS011;8928;51.678;6.074;2022-10-31T05:49:53;34.13;;;16.83;;
17618;SDS011;8928;51.678;6.074;2022-10-31T05:52:40;34.37;;;17.13;;
17618;SDS011;8928;51.678;6.074;2022-10-31T05:55:29;32.03;;;17.13;;
17618;SDS011;8928;51.678;6.074;2022-10-31T05:58:17;38.40;;;17.07;;
17618;SDS011;8928;51.678;6.074;2022-10-31T06:01:04;38.47;;;18.07;;
17618;SDS011;8928;51.678;6.074;2022-10-31T06:03:51;38.43;;;18.73;;
17618;SDS011;8928;51.678;6.074;2022-10-31T06:06:38;43.50;;;18.90;;
17618;SDS011;8928;51.678;6.074;2022-10-31T06:09:25;43.07;;;18.90;;
17618;SDS011;8928;51.678;6.074;2022-10-31T06:12:14;40.20;;;18.37;;
17618;SDS011;8928;51.678;6.074;2022-10-31T06:15:01;36.23;;;18.23;;
17618;SDS011;8928;51.678;6.074;2022-10-31T06:17:56;45.87;;;19.03;;
17618;SDS011;8928;51.678;6.074;2022-10-31T06:20:44;42.83;;;18.60;;
17618;SDS011;8928;51.678;6.074;2022-10-31T06:23:31;37.83;;;17.97;;
17618;SDS011;8928;51.678;6.074;2022-10-31T06:26:18;34.53;;;17.00;;
17618;SDS011;8928;51.678;6.074;2022-10-31T06:29:06;42.20;;;16.43;;
17618;SDS011;8928;51.678;6.074;2022-10-31T06:31:53;35.43;;;16.80;;
17618;SDS011;8928;51.678;6.074;2022-10-31T06:34:41;43.87;;;17.30;;
17618;SDS011;8928;51.678;6.074;2022-10-31T06:37:28;42.13;;;17.70;;
17618;SDS011;8928;51.678;6.074;2022-10-31T06:40:15;37.90;;;18.27;;
17618;SDS011;8928;51.678;6.074;2022-10-31T06:43:02;35.00;;;16.97;;
17618;SDS011;8928;51.678;6.074;2022-10-31T06:45:50;35.23;;;17.63;;
17618;SDS011;8928;51.678;6.074;2022-10-31T06:48:37;37.67;;;18.87;;
17618;SDS011;8928;51.678;6.074;2022-10-31T06:53:55;38.73;;;19.43;;
17618;SDS011;8928;51.678;6.074;2022-10-31T06:59:57;45.93;;;19.40;;
17618;SDS011;8928;51.678;6.074;2022-10-31T07:02:53;48.87;;;19.57;;
17618;SDS011;8928;51.678;6.074;2022-10-31T07:05:41;40.60;;;18.53;;
17618;SDS011;8928;51.678;6.074;2022-10-31T07:08:28;43.53;;;19.33;;
17618;SDS011;8928;51.678;6.074;2022-10-31T07:11:15;41.57;;;19.07;;
17618;SDS011;8928;51.678;6.074;2022-10-31T07:14:02;42.87;;;18.93;;
17618;SDS011;8928;51.678;6.074;2022-10-31T07:16:50;45.67;;;19.77;;
17618;SDS011;8928;51.678;6.074;2022-10-31T07:19:38;40.70;;;19.13;;
17618;SDS011;8928;51.678;6.074;2022-10-31T07:22:31;42.30;;;18.83;;
17618;SDS011;8928;51.678;6.074;2022-10-31T07:25:19;41.07;;;19.30;;
17618;SDS011;8928;51.678;6.074;2022-10-31T07:28:06;46.87;;;21.50;;
17618;SDS011;8928;51.678;6.074;2022-10-31T07:30:54;47.80;;;23.00;;
17618;SDS011;8928;51.678;6.074;2022-10-31T07:33:42;48.27;;;21.90;;
17618;SDS011;8928;51.678;6.074;2022-10-31T07:36:30;46.23;;;21.73;;
17618;SDS011;8928;51.678;6.074;2022-10-31T07:39:17;52.17;;;22.00;;
17618;SDS011;8928;51.678;6.074;2022-10-31T07:42:04;53.83;;;23.00;;
17618;SDS011;8928;51.678;6.074;2022-10-31T07:44:51;49.50;;;22.70;;
17618;SDS011;8928;51.678;6.074;2022-10-31T07:47:38;44.73;;;21.30;;
17618;SDS011;8928;51.678;6.074;2022-10-31T07:50:26;47.83;;;23.03;;
17618;SDS011;8928;51.678;6.074;2022-10-31T07:53:16;42.53;;;22.57;;
17618;SDS011;8928;51.678;6.074;2022-10-31T07:56:03;46.90;;;23.47;;
17618;SDS011;8928;51.678;6.074;2022-10-31T07:58:50;48.77;;;22.97;;
17618;SDS011;8928;51.678;6.074;2022-10-31T08:01:37;51.63;;;24.27;;
17618;SDS011;8928;51.678;6.074;2022-10-31T08:04:24;53.30;;;24.53;;
17618;SDS011;8928;51.678;6.074;2022-10-31T08:07:11;54.50;;;24.70;;
17618;SDS011;8928;51.678;6.074;2022-10-31T08:09:59;51.30;;;25.63;;
17618;SDS011;8928;51.678;6.074;2022-10-31T08:12:46;55.57;;;25.20;;
17618;SDS011;8928;51.678;6.074;2022-10-31T08:15:40;55.87;;;26.30;;
17618;SDS011;8928;51.678;6.074;2022-10-31T08:18:27;55.27;;;27.00;;
17618;SDS011;8928;51.678;6.074;2022-10-31T08:21:15;58.63;;;26.80;;
17618;SDS011;8928;51.678;6.074;2022-10-31T08:24:02;55.83;;;27.47;;
17618;SDS011;8928;51.678;6.074;2022-10-31T08:26:50;65.53;;;27.83;;
17618;SDS011;8928;51.678;6.074;2022-10-31T08:29:38;60.47;;;28.30;;
17618;SDS011;8928;51.678;6.074;2022-10-31T08:32:25;55.03;;;27.73;;
17618;SDS011;8928;51.678;6.074;2022-10-31T08:35:12;61.87;;;29.17;;
17618;SDS011;8928;51.678;6.074;2022-10-31T08:38:00;61.90;;;29.87;;
17618;SDS011;8928;51.678;6.074;2022-10-31T08:40:48;68.30;;;31.37;;
17618;SDS011;8928;51.678;6.074;2022-10-31T08:43:37;58.20;;;29.47;;
17618;SDS011;8928;51.678;6.074;2022-10-31T08:46:24;66.83;;;27.93;;
17618;SDS011;8928;51.678;6.074;2022-10-31T08:49:11;56.97;;;27.33;;
17618;SDS011;8928;51.678;6.074;2022-10-31T08:51:58;61.23;;;29.03;;
17618;SDS011;8928;51.678;6.074;2022-10-31T08:54:45;64.37;;;28.63;;
17618;SDS011;8928;51.678;6.074;2022-10-31T08:57:32;60.93;;;28.97;;
17618;SDS011;8928;51.678;6.074;2022-10-31T09:00:20;56.43;;;29.23;;
17618;SDS011;8928;51.678;6.074;2022-10-31T09:03:09;61.20;;;29.30;;
17618;SDS011;8928;51.678;6.074;2022-10-31T09:05:58;59.57;;;28.83;;
17618;SDS011;8928;51.678;6.074;2022-10-31T09:08:46;56.00;;;28.40;;
17618;SDS011;8928;51.678;6.074;2022-10-31T09:11:33;54.27;;;26.83;;
17618;SDS011;8928;51.678;6.074;2022-10-31T09:14:20;49.37;;;25.07;;
17618;SDS011;8928;51.678;6.074;2022-10-31T09:17:08;46.73;;;23.80;;
17618;SDS011;8928;51.678;6.074;2022-10-31T09:19:55;52.03;;;23.60;;
17618;SDS011;8928;51.678;6.074;2022-10-31T09:22:43;48.17;;;23.03;;
17618;SDS011;8928;51.678;6.074;2022-10-31T09:25:30;42.03;;;22.93;;
17618;SDS011;8928;51.678;6.074;2022-10-31T09:28:20;45.43;;;22.03;;
17618;SDS011;8928;51.678;6.074;2022-10-31T09:31:08;43.53;;;21.30;;
17618;SDS011;8928;51.678;6.074;2022-10-31T09:33:56;35.70;;;20.13;;
17618;SDS011;8928;51.678;6.074;2022-10-31T09:36:43;39.37;;;20.60;;
17618;SDS011;8928;51.678;6.074;2022-10-31T09:39:31;36.67;;;19.43;;
17618;SDS011;8928;51.678;6.074;2022-10-31T09:42:27;39.73;;;20.37;;
17618;SDS011;8928;51.678;6.074;2022-10-31T09:45:31;37.40;;;20.13;;
17618;SDS011;8928;51.678;6.074;2022-10-31T09:48:35;43.80;;;20.80;;
17618;SDS011;8928;51.678;6.074;2022-10-31T09:51:30;48.00;;;20.30;;
17618;SDS011;8928;51.678;6.074;2022-10-31T09:54:20;36.53;;;18.40;;
17618;SDS011;8928;51.678;6.074;2022-10-31T09:57:14;41.40;;;19.97;;
17618;SDS011;8928;51.678;6.074;2022-10-31T10:00:03;37.77;;;18.23;;
17618;SDS011;8928;51.678;6.074;2022-10-31T10:02:52;34.80;;;18.53;;
17618;SDS011;8928;51.678;6.074;2022-10-31T10:05:44;36.80;;;18.17;;
17618;SDS011;8928;51.678;6.074;2022-10-31T10:08:39;35.17;;;17.27;;
17618;SDS011;8928;51.678;6.074;2022-10-31T10:11:32;38.37;;;17.40;;
17618;SDS011;8928;51.678;6.074;2022-10-31T10:14:32;38.47;;;17.07;;
17618;SDS011;8928;51.678;6.074;2022-10-31T10:17:31;35.03;;;17.87;;
17618;SDS011;8928;51.678;6.074;2022-10-31T10:20:26;31.87;;;16.17;;
17618;SDS011;8928;51.678;6.074;2022-10-31T10:23:31;35.50;;;17.23;;
17618;SDS011;8928;51.678;6.074;2022-10-31T10:26:29;37.23;;;17.43;;
17618;SDS011;8928;51.678;6.074;2022-10-31T10:29:25;40.27;;;18.00;;
17618;SDS011;8928;51.678;6.074;2022-10-31T10:32:19;36.33;;;17.43;;
17618;SDS011;8928;51.678;6.074;2022-10-31T10:35:11;38.63;;;17.50;;
17618;SDS011;8928;51.678;6.074;2022-10-31T10:38:09;36.20;;;16.73;;
17618;SDS011;8928;51.678;6.074;2022-10-31T10:41:01;35.92;;;17.33;;
17618;SDS011;8928;51.678;6.074;2022-10-31T10:43:54;35.70;;;16.73;;
17618;SDS011;8928;51.678;6.074;2022-10-31T10:46:41;32.95;;;17.05;;
17618;SDS011;8928;51.678;6.074;2022-10-31T10:49:50;42.75;;;17.08;;
17618;SDS011;8928;51.678;6.074;2022-10-31T10:52:39;31.88;;;16.08;;
17618;SDS011;8928;51.678;6.074;2022-10-31T10:55:36;33.95;;;16.15;;
17618;SDS011;8928;51.678;6.074;2022-10-31T10:58:28;34.63;;;16.67;;
17618;SDS011;8928;51.678;6.074;2022-10-31T11:01:16;35.70;;;16.95;;
17618;SDS011;8928;51.678;6.074;2022-10-31T11:04:05;40.97;;;17.60;;
17618;SDS011;8928;51.678;6.074;2022-10-31T11:07:11;41.55;;;17.10;;
17618;SDS011;8928;51.678;6.074;2022-10-31T11:10:02;42.20;;;17.35;;
17618;SDS011;8928;51.678;6.074;2022-10-31T11:13:00;38.00;;;16.88;;
17618;SDS011;8928;51.678;6.074;2022-10-31T11:15:52;42.28;;;17.20;;
17618;SDS011;8928;51.678;6.074;2022-10-31T11:18:44;37.63;;;17.90;;
17618;SDS011;8928;51.678;6.074;2022-10-31T11:21:33;40.40;;;17.13;;
17618;SDS011;8928;51.678;6.074;2022-10-31T11:24:23;39.45;;;17.17;;
17618;SDS011;8928;51.678;6.074;2022-10-31T11:27:13;40.47;;;17.33;;
17618;SDS011;8928;51.678;6.074;2022-10-31T11:30:05;37.88;;;17.10;;
17618;SDS011;8928;51.678;6.074;2022-10-31T11:32:53;35.55;;;16.95;;
17618;SDS011;8928;51.678;6.074;2022-10-31T11:35:41;42.60;;;17.00;;
17618;SDS011;8928;51.678;6.074;2022-10-31T11:38:31;39.17;;;17.45;;
17618;SDS011;8928;51.678;6.074;2022-10-31T11:41:24;43.25;;;16.95;;
17618;SDS011;8928;51.678;6.074;2022-10-31T11:44:15;39.15;;;16.77;;
17618;SDS011;8928;51.678;6.074;2022-10-31T11:47:04;35.25;;;16.52;;
17618;SDS011;8928;51.678;6.074;2022-10-31T11:49:52;41.42;;;16.65;;
17618;SDS011;8928;51.678;6.074;2022-10-31T11:52:41;38.60;;;16.20;;
17618;SDS011;8928;51.678;6.074;2022-10-31T11:55:32;36.58;;;16.42;;
17618;SDS011;8928;51.678;6.074;2022-10-31T11:58:21;33.47;;;15.95;;
17618;SDS011;8928;51.678;6.074;2022-10-31T12:01:21;33.97;;;16.10;;
17618;SDS011;8928;51.678;6.074;2022-10-31T12:04:11;39.33;;;15.82;;
17618;SDS011;8928;51.678;6.074;2022-10-31T12:06:59;33.75;;;16.08;;
17618;SDS011;8928;51.678;6.074;2022-10-31T12:09:47;39.28;;;15.90;;
17618;SDS011;8928;51.678;6.074;2022-10-31T12:12:37;37.35;;;15.85;;
17618;SDS011;8928;51.678;6.074;2022-10-31T12:15:32;35.50;;;15.45;;
17618;SDS011;8928;51.678;6.074;2022-10-31T12:18:27;32.90;;;16.10;;
17618;SDS011;8928;51.678;6.074;2022-10-31T12:21:31;41.25;;;16.48;;
17618;SDS011;8928;51.678;6.074;2022-10-31T12:24:30;39.97;;;17.02;;
17618;SDS011;8928;51.678;6.074;2022-10-31T12:27:48;43.90;;;16.77;;
17618;SDS011;8928;51.678;6.074;2022-10-31T12:31:11;39.03;;;16.85;;
17618;SDS011;8928;51.678;6.074;2022-10-31T12:34:16;38.88;;;16.98;;
17618;SDS011;8928;51.678;6.074;2022-10-31T12:37:31;37.20;;;16.75;;
17618;SDS011;8928;51.678;6.074;2022-10-31T12:40:33;40.95;;;17.08;;
17618;SDS011;8928;51.678;6.074;2022-10-31T12:43:34;40.70;;;16.75;;
17618;SDS011;8928;51.678;6.074;2022-10-31T12:46:29;36.50;;;16.23;;
17618;SDS011;8928;51.678;6.074;2022-10-31T12:49:42;37.53;;;16.42;;
17618;SDS011;8928;51.678;6.074;2022-10-31T12:52:40;41.70;;;16.85;;
17618;SDS011;8928;51.678;6.074;2022-10-31T12:55:37;36.38;;;16.67;;
17618;SDS011;8928;51.678;6.074;2022-10-31T12:58:31;38.72;;;16.33;;
17618;SDS011;8928;51.678;6.074;2022-10-31T13:01:25;36.50;;;16.27;;
17618;SDS011;8928;51.678;6.074;2022-10-31T13:04:15;39.97;;;16.75;;
17618;SDS011;8928;51.678;6.074;2022-10-31T13:07:08;37.50;;;16.40;;
17618;SDS011;8928;51.678;6.074;2022-10-31T13:09:59;40.42;;;15.77;;
17618;SDS011;8928;51.678;6.074;2022-10-31T13:12:49;40.55;;;16.77;;
17618;SDS011;8928;51.678;6.074;2022-10-31T13:15:45;37.70;;;16.15;;
17618;SDS011;8928;51.678;6.074;2022-10-31T13:18:49;42.15;;;17.38;;
17618;SDS011;8928;51.678;6.074;2022-10-31T13:21:41;43.70;;;17.30;;
17618;SDS011;8928;51.678;6.074;2022-10-31T13:24:36;45.13;;;17.25;;
17618;SDS011;8928;51.678;6.074;2022-10-31T13:27:28;39.55;;;17.30;;
17618;SDS011;8928;51.678;6.074;2022-10-31T13:30:26;43.83;;;16.65;;
17618;SDS011;8928;51.678;6.074;2022-10-31T13:33:18;43.60;;;17.45;;
17618;SDS011;8928;51.678;6.074;2022-10-31T13:36:14;42.83;;;17.20;;
17618;SDS011;8928;51.678;6.074;2022-10-31T13:39:12;42.05;;;17.73;;
17618;SDS011;8928;51.678;6.074;2022-10-31T13:42:10;40.33;;;17.33;;
17618;SDS011;8928;51.678;6.074;2022-10-31T13:45:12;40.83;;;18.20;;
17618;SDS011;8928;51.678;6.074;2022-10-31T13:48:01;48.22;;;19.23;;
17618;SDS011;8928;51.678;6.074;2022-10-31T13:51:06;44.78;;;19.63;;
17618;SDS011;8928;51.678;6.074;2022-10-31T13:53:58;43.92;;;19.27;;
17618;SDS011;8928;51.678;6.074;2022-10-31T13:56:48;42.33;;;19.30;;
17618;SDS011;8928;51.678;6.074;2022-10-31T13:59:36;42.17;;;19.65;;
17618;SDS011;8928;51.678;6.074;2022-10-31T14:02:25;46.88;;;19.85;;
17618;SDS011;8928;51.678;6.074;2022-10-31T14:05:19;52.28;;;19.70;;
17618;SDS011;8928;51.678;6.074;2022-10-31T14:08:17;46.15;;;19.48;;
17618;SDS011;8928;51.678;6.074;2022-10-31T14:11:07;43.63;;;20.30;;
17618;SDS011;8928;51.678;6.074;2022-10-31T14:13:55;47.33;;;19.15;;
17618;SDS011;8928;51.678;6.074;2022-10-31T14:16:44;39.53;;;18.67;;
17618;SDS011;8928;51.678;6.074;2022-10-31T14:19:32;46.80;;;20.25;;
17618;SDS011;8928;51.678;6.074;2022-10-31T14:22:20;44.83;;;19.40;;
17618;SDS011;8928;51.678;6.074;2022-10-31T14:28:18;45.20;;;20.30;;
17618;SDS011;8928;51.678;6.074;2022-10-31T14:31:21;44.38;;;19.60;;
17618;SDS011;8928;51.678;6.074;2022-10-31T14:34:22;42.47;;;19.38;;
17618;SDS011;8928;51.678;6.074;2022-10-31T14:40:39;48.03;;;20.92;;
17618;SDS011;8928;51.678;6.074;2022-10-31T14:43:45;51.10;;;20.35;;
17618;SDS011;8928;51.678;6.074;2022-10-31T14:46:50;46.28;;;20.00;;
17618;SDS011;8928;51.678;6.074;2022-10-31T14:49:49;52.08;;;20.55;;
17618;SDS011;8928;51.678;6.074;2022-10-31T14:52:51;45.50;;;19.90;;
17618;SDS011;8928;51.678;6.074;2022-10-31T14:55:44;44.58;;;19.02;;
17618;SDS011;8928;51.678;6.074;2022-10-31T14:58:35;46.53;;;19.02;;
17618;SDS011;8928;51.678;6.074;2022-10-31T15:01:26;43.45;;;18.77;;
17618;SDS011;8928;51.678;6.074;2022-10-31T15:04:15;42.95;;;19.63;;
17618;SDS011;8928;51.678;6.074;2022-10-31T15:07:06;39.40;;;18.60;;
17618;SDS011;8928;51.678;6.074;2022-10-31T15:09:58;47.05;;;19.38;;
17618;SDS011;8928;51.678;6.074;2022-10-31T15:12:47;45.20;;;18.77;;
17618;SDS011;8928;51.678;6.074;2022-10-31T15:15:34;46.85;;;18.98;;
17618;SDS011;8928;51.678;6.074;2022-10-31T15:18:23;43.50;;;19.13;;
17618;SDS011;8928;51.678;6.074;2022-10-31T15:21:12;45.63;;;19.52;;
17618;SDS011;8928;51.678;6.074;2022-10-31T15:24:01;48.85;;;18.73;;
17618;SDS011;8928;51.678;6.074;2022-10-31T15:26:51;45.95;;;18.92;;
17618;SDS011;8928;51.678;6.074;2022-10-31T15:29:48;39.83;;;18.38;;
17618;SDS011;8928;51.678;6.074;2022-10-31T15:32:36;47.97;;;19.25;;
17618;SDS011;8928;51.678;6.074;2022-10-31T15:35:31;40.53;;;18.05;;
17618;SDS011;8928;51.678;6.074;2022-10-31T15:38:18;46.33;;;17.92;;
17618;SDS011;8928;51.678;6.074;2022-10-31T15:41:05;43.40;;;17.60;;
17618;SDS011;8928;51.678;6.074;2022-10-31T15:44:11;41.77;;;17.43;;
17618;SDS011;8928;51.678;6.074;2022-10-31T15:47:03;42.13;;;18.07;;
17618;SDS011;8928;51.678;6.074;2022-10-31T15:49:52;36.10;;;16.53;;
17618;SDS011;8928;51.678;6.074;2022-10-31T15:52:41;38.57;;;17.50;;
17618;SDS011;8928;51.678;6.074;2022-10-31T15:55:31;41.53;;;17.17;;
17618;SDS011;8928;51.678;6.074;2022-10-31T15:58:31;43.00;;;17.67;;
17618;SDS011;8928;51.678;6.074;2022-10-31T16:01:20;40.93;;;17.10;;
17618;SDS011;8928;51.678;6.074;2022-10-31T16:04:21;42.57;;;16.97;;
17618;SDS011;8928;51.678;6.074;2022-10-31T16:07:12;36.53;;;17.20;;
17618;SDS011;8928;51.678;6.074;2022-10-31T16:10:01;41.20;;;16.43;;
17618;SDS011;8928;51.678;6.074;2022-10-31T16:12:50;40.73;;;16.10;;
17618;SDS011;8928;51.678;6.074;2022-10-31T16:15:37;44.03;;;16.47;;
17618;SDS011;8928;51.678;6.074;2022-10-31T16:18:35;42.37;;;16.37;;
17618;SDS011;8928;51.678;6.074;2022-10-31T16:21:26;34.70;;;16.07;;
17618;SDS011;8928;51.678;6.074;2022-10-31T16:24:18;37.20;;;15.33;;
17618;SDS011;8928;51.678;6.074;2022-10-31T16:27:07;39.83;;;15.67;;
17618;SDS011;8928;51.678;6.074;2022-10-31T16:33:23;35.60;;;15.30;;
17618;SDS011;8928;51.678;6.074;2022-10-31T16:39:17;34.50;;;15.10;;
17618;SDS011;8928;51.678;6.074;2022-10-31T16:42:04;36.83;;;14.03;;
17618;SDS011;8928;51.678;6.074;2022-10-31T16:44:55;34.30;;;13.97;;
17618;SDS011;8928;51.678;6.074;2022-10-31T16:47:42;32.57;;;13.97;;
17618;SDS011;8928;51.678;6.074;2022-10-31T16:50:29;36.07;;;13.93;;
17618;SDS011;8928;51.678;6.074;2022-10-31T16:53:18;35.03;;;14.17;;
17618;SDS011;8928;51.678;6.074;2022-10-31T16:56:05;33.87;;;14.03;;
17618;SDS011;8928;51.678;6.074;2022-10-31T16:59:02;34.67;;;14.37;;
17618;SDS011;8928;51.678;6.074;2022-10-31T17:01:52;29.37;;;13.07;;
17618;SDS011;8928;51.678;6.074;2022-10-31T17:04:40;39.37;;;13.43;;
17618;SDS011;8928;51.678;6.074;2022-10-31T17:07:27;31.00;;;12.93;;
17618;SDS011;8928;51.678;6.074;2022-10-31T17:10:15;36.17;;;12.90;;
17618;SDS011;8928;51.678;6.074;2022-10-31T17:13:05;31.77;;;11.93;;
17618;SDS011;8928;51.678;6.074;2022-10-31T17:15:54;28.77;;;11.20;;